Airfield :
LOGIN :

Register | Disclaimer

   EN    FR    IT 

 










Legend :    VFR   Marginal VFR   IFR   Intensive IFR   Very Intensive IFR
Visi :
Ceiling :
>= 8 km
>= 3000ft
5 to 8 km
1000 to 3000 ft
1500m to 5 km
500 to 1000 ft
800 to 1500m
200 to 500 ft
< 800m
< 200 ft
Symbols :   Thunderstorms  Fog  Heavy snow  Heavy precipitations  Wind > 20 kt
SIGMETs :     Misc.  Thunderstorms  Icing  Turbulence  Mountain Waves  Volcanic Ashes







- Airport Elevation : 502 ft
- IATA code : ORK


EICK - Cork

CURRENT METAR :
  • 150800Z 21006KT 1400 R16/P2000 R34/P2000 BR OVC001 14/14 Q1026 TEMPO 2000 BKN002

EXPIRED METARs :
  • 150730Z 21004KT 170V300 1200 R16/P2000 R34/P2000 BR OVC001 14/13 Q1026 NOSIG
  • 150700Z 21004KT 6000 OVC002 14/13 Q1026 TEMPO 3000
  • 150630Z 22004KT 6000 SCT002 BKN016 13/13 Q1026 TEMPO 3000 BKN002
  • 150600Z 22006KT 6000 -DZ SCT002 BKN015 13/13 Q1026 TEMPO 3000 BKN002
  • 150530Z 23005KT 7000 -DZ SCT002 BKN012 13/13 Q1026 TEMPO 3000 BKN002

TAF TAF EICK
Valid from the 15 at 06:00 until the 16 at 06:00 UTC


150500Z 1506/1606 23008KT 6000 -DZ SCT002 BKN008
TEMPO 1506/1509 3000 BR BKN002
PROB40
TEMPO 1506/1509 0500 FG BKN001
BECMG 1509/1512 26011KT 9999 FEW007 BKN025
TEMPO 1520/1603 BKN007
PROB40
TEMPO 1521/1602 3000 BR BKN003
TEMPO 1602/1606 3000 BR BKN003
PROB40
TEMPO 1602/1606 0500 FG BKN002
No reported NOTAMs for that airfield.



MET'MAP, your aeronautical weather chart ! - Copyright ORBIFLY December 2007 - Disclaimer

ORBIFLY MET'MAP TEAM :

Programming & Development : Alexandra Zaïnal
Concept & Development : Baudouin d'Aumeries
Co-Development & Prog : Marc-Olivier Méhu
Technical & hardware support : Manuel Goepfert

Contact : metmap@orbifly.com




SOURCES & CREDITS :

   NOAA